createdAt,value
2023-01-18T00:01:51.004Z,60.82
2023-01-18T00:04:18.951Z,61.03
2023-01-18T00:06:48.047Z,61.02
2023-01-18T00:09:16.371Z,60.84
2023-01-18T00:11:44.409Z,60.93
2023-01-18T00:14:12.371Z,60.95
2023-01-18T00:16:40.393Z,60.94
2023-01-18T00:19:13.205Z,60.92
2023-01-18T00:21:41.175Z,60.93
2023-01-18T00:24:11.763Z,60.93
2023-01-18T00:26:39.514Z,61.03
2023-01-18T00:29:10.436Z,60.96
2023-01-18T00:31:38.578Z,60.82
2023-01-18T00:34:07.364Z,60.93
2023-01-18T00:36:35.662Z,60.89
2023-01-18T00:39:04.374Z,60.98
2023-01-18T00:41:32.307Z,61.08
2023-01-18T00:44:00.078Z,61.23
2023-01-18T00:46:27.972Z,61.42
2023-01-18T00:48:57.467Z,61.20
2023-01-18T00:51:26.188Z,61.06
2023-01-18T00:53:54.198Z,61.13
2023-01-18T00:56:23.412Z,61.04
2023-01-18T00:58:51.729Z,61.09
2023-01-18T01:01:19.926Z,61.12
2023-01-18T01:04:06.986Z,61.11
2023-01-18T01:06:45.569Z,61.06
2023-01-18T01:09:24.511Z,61.09
2023-01-18T01:12:12.698Z,61.02
2023-01-18T01:15:03.553Z,61.22
2023-01-18T01:17:55.079Z,61.25
2023-01-18T01:20:43.060Z,61.04
2023-01-18T01:23:40.887Z,61.24
2023-01-18T01:26:11.838Z,61.26
2023-01-18T01:28:42.799Z,61.22
2023-01-18T01:31:13.714Z,61.38
2023-01-18T01:33:42.169Z,61.33
2023-01-18T01:36:21.782Z,61.27
2023-01-18T01:38:49.819Z,61.37
2023-01-18T01:41:23.847Z,61.56
2023-01-18T01:43:55.244Z,61.55
2023-01-18T01:46:41.971Z,61.72
2023-01-18T01:49:28.403Z,61.70
2023-01-18T01:52:12.179Z,61.58
2023-01-18T01:54:49.605Z,61.61
2023-01-18T01:57:39.266Z,61.65
2023-01-18T02:00:14.555Z,61.52
2023-01-18T02:02:47.089Z,61.53
2023-01-18T02:05:18.014Z,61.80
2023-01-18T02:07:46.504Z,61.55
2023-01-18T02:10:15.004Z,61.55
2023-01-18T02:12:47.042Z,61.68
2023-01-18T02:15:15.073Z,61.69
2023-01-18T02:18:06.758Z,61.66
2023-01-18T02:20:59.276Z,61.97
2023-01-18T02:23:55.393Z,61.89
2023-01-18T02:26:49.421Z,62.04
2023-01-18T02:29:25.380Z,61.88
2023-01-18T02:32:02.233Z,61.92
2023-01-18T02:34:35.819Z,62.15
2023-01-18T02:37:27.035Z,62.13
2023-01-18T02:40:23.953Z,61.87
2023-01-18T02:43:11.722Z,62.15
2023-01-18T02:46:03.429Z,61.97
2023-01-18T02:48:41.714Z,62.15
2023-01-18T02:51:10.134Z,62.13
2023-01-18T02:53:43.532Z,62.07
2023-01-18T02:56:16.113Z,62.16
2023-01-18T02:58:49.459Z,62.27
2023-01-18T03:01:40.580Z,62.39
2023-01-18T03:04:23.807Z,62.26
2023-01-18T03:06:58.848Z,62.25
2023-01-18T03:09:27.468Z,62.25
2023-01-18T03:12:06.282Z,62.24
2023-01-18T03:14:46.809Z,62.31
2023-01-18T03:17:32.045Z,62.43
2023-01-18T03:20:08.496Z,62.33
2023-01-18T03:22:59.323Z,62.30
2023-01-18T03:25:35.003Z,62.24
2023-01-18T03:28:28.173Z,62.31
2023-01-18T03:31:19.852Z,62.38
2023-01-18T03:33:59.274Z,62.08
2023-01-18T03:36:31.637Z,62.29
2023-01-18T03:39:07.769Z,62.32
2023-01-18T03:41:41.540Z,62.29
2023-01-18T03:44:16.293Z,62.46
2023-01-18T03:46:44.405Z,62.35
2023-01-18T03:49:13.171Z,62.42
2023-01-18T03:52:01.753Z,62.37
2023-01-18T03:54:35.021Z,62.31
2023-01-18T03:57:07.453Z,62.50
2023-01-18T03:59:38.766Z,62.69
2023-01-18T04:02:08.105Z,62.77
2023-01-18T04:04:36.499Z,62.64
2023-01-18T04:07:04.396Z,62.37
2023-01-18T04:09:32.268Z,62.67
2023-01-18T04:12:00.155Z,62.78
2023-01-18T04:14:28.111Z,62.62
2023-01-18T04:16:55.954Z,62.78
2023-01-18T04:19:23.860Z,62.77
2023-01-18T04:21:51.687Z,62.67
2023-01-18T04:24:19.513Z,62.75
2023-01-18T04:26:47.275Z,62.72
2023-01-18T04:29:15.069Z,62.84
2023-01-18T04:31:42.975Z,62.84
2023-01-18T04:34:10.749Z,62.97
2023-01-18T04:36:38.996Z,62.80
2023-01-18T04:39:06.794Z,62.76
2023-01-18T04:41:34.655Z,62.85
2023-01-18T04:44:02.546Z,62.79
2023-01-18T04:46:30.539Z,62.78
2023-01-18T04:48:58.621Z,62.59
2023-01-18T04:51:27.463Z,62.68
2023-01-18T04:53:55.296Z,62.74
2023-01-18T04:56:23.049Z,62.80
2023-01-18T04:58:54.723Z,62.75
2023-01-18T05:01:23.116Z,62.81
2023-01-18T05:03:53.624Z,62.75
2023-01-18T05:06:21.995Z,62.88
2023-01-18T05:08:50.738Z,62.71
2023-01-18T05:11:23.402Z,62.68
2023-01-18T05:13:51.448Z,62.75
2023-01-18T05:16:21.926Z,62.71
2023-01-18T05:18:50.186Z,62.66
2023-01-18T05:21:18.314Z,62.71
2023-01-18T05:23:46.384Z,62.76
2023-01-18T05:26:18.026Z,62.88
2023-01-18T05:28:46.933Z,62.81
2023-01-18T05:31:15.828Z,62.99
2023-01-18T05:33:43.723Z,62.96
2023-01-18T05:36:11.874Z,62.92
2023-01-18T05:38:39.814Z,63.08
2023-01-18T05:41:08.179Z,63.12
2023-01-18T05:43:36.010Z,63.22
2023-01-18T05:46:05.373Z,63.20
2023-01-18T05:48:33.224Z,63.38
2023-01-18T05:51:01.025Z,63.28
2023-01-18T05:53:28.968Z,63.40
2023-01-18T05:55:59.291Z,63.60
2023-01-18T05:58:28.587Z,63.66
2023-01-18T06:00:56.816Z,64.00
2023-01-18T06:03:28.091Z,64.15
2023-01-18T06:05:55.956Z,64.05
2023-01-18T06:08:23.829Z,64.48
2023-01-18T06:10:59.857Z,64.32
2023-01-18T06:13:30.862Z,64.65
2023-01-18T06:16:00.085Z,64.68
2023-01-18T06:18:32.795Z,64.96
2023-01-18T06:21:02.520Z,65.27
2023-01-18T06:23:30.801Z,65.31
2023-01-18T06:25:59.339Z,65.40
2023-01-18T06:28:30.290Z,65.23
2023-01-18T06:30:58.818Z,65.27
2023-01-18T06:33:26.631Z,65.51
2023-01-18T06:35:54.475Z,65.38
2023-01-18T06:38:22.386Z,65.23
2023-01-18T06:40:50.147Z,65.23
2023-01-18T06:43:17.956Z,65.37
2023-01-18T06:45:52.499Z,65.45
2023-01-18T06:48:22.073Z,65.48
2023-01-18T06:50:54.335Z,65.21
2023-01-18T06:53:22.684Z,64.96
2023-01-18T06:55:58.851Z,65.25
2023-01-18T06:58:27.753Z,64.97
2023-01-18T07:00:56.476Z,65.22
2023-01-18T07:03:25.762Z,65.51
2023-01-18T07:05:54.930Z,65.51
2023-01-18T07:08:23.975Z,65.24
2023-01-18T07:10:55.132Z,65.28
2023-01-18T07:13:24.379Z,65.15
2023-01-18T07:16:00.744Z,65.17
2023-01-18T07:18:30.673Z,65.11
2023-01-18T07:20:59.604Z,65.09
2023-01-18T07:23:29.225Z,64.98
2023-01-18T07:26:07.853Z,64.95
2023-01-18T07:28:37.034Z,64.66
2023-01-18T07:31:08.150Z,64.96
2023-01-18T07:33:36.359Z,65.37
2023-01-18T07:36:06.540Z,64.92
2023-01-18T07:38:34.483Z,64.98
2023-01-18T07:41:04.660Z,64.90
2023-01-18T07:43:33.411Z,65.56
2023-01-18T07:46:04.233Z,65.99
2023-01-18T07:48:33.233Z,65.90
2023-01-18T07:51:03.658Z,65.55
2023-01-18T07:53:34.261Z,65.93
2023-01-18T07:56:04.792Z,65.54
2023-01-18T07:58:32.981Z,65.64
2023-01-18T08:01:13.762Z,65.33
2023-01-18T08:03:43.691Z,65.14
2023-01-18T08:06:13.627Z,64.95
2023-01-18T08:08:41.451Z,65.66
2023-01-18T08:11:10.681Z,65.59
2023-01-18T08:13:38.819Z,65.57
2023-01-18T08:16:08.737Z,65.31
2023-01-18T08:18:36.730Z,65.44
2023-01-18T08:21:04.950Z,65.46
2023-01-18T08:23:32.922Z,65.39
2023-01-18T08:26:02.850Z,65.29
2023-01-18T08:28:31.410Z,64.56
2023-01-18T08:31:07.491Z,65.20
2023-01-18T08:33:45.937Z,65.14
2023-01-18T08:36:16.704Z,65.35
2023-01-18T08:38:49.254Z,65.15
2023-01-18T08:41:18.580Z,64.88
2023-01-18T08:43:51.060Z,64.93
2023-01-18T08:46:19.447Z,64.58
2023-01-18T08:48:56.356Z,64.41
2023-01-18T08:51:26.139Z,64.28
2023-01-18T08:53:57.426Z,64.48
2023-01-18T08:56:26.915Z,64.39
2023-01-18T08:58:55.414Z,64.33
2023-01-18T09:01:23.789Z,64.19
2023-01-18T09:03:57.685Z,64.02
2023-01-18T09:06:26.615Z,63.57
2023-01-18T09:08:54.432Z,63.83
2023-01-18T09:11:22.255Z,64.02
2023-01-18T09:14:00.776Z,63.92
2023-01-18T09:16:31.180Z,63.86
2023-01-18T09:19:00.017Z,63.61
2023-01-18T09:21:29.237Z,63.06
2023-01-18T09:23:58.200Z,62.92
2023-01-18T09:26:27.193Z,62.69
2023-01-18T09:28:55.204Z,62.77
2023-01-18T09:31:26.582Z,62.68
2023-01-18T09:34:00.891Z,62.88
2023-01-18T09:36:34.085Z,62.75
2023-01-18T09:39:01.908Z,62.62
2023-01-18T09:41:44.422Z,62.32
2023-01-18T09:44:30.035Z,62.85
2023-01-18T09:47:20.855Z,62.67
2023-01-18T09:50:21.039Z,62.60
2023-01-18T09:52:58.309Z,62.84
2023-01-18T09:55:54.178Z,63.01
2023-01-18T09:58:55.698Z,62.95
2023-01-18T10:01:28.650Z,62.91
2023-01-18T10:04:02.942Z,62.78
2023-01-18T10:06:43.850Z,62.90
2023-01-18T10:09:26.860Z,62.76
2023-01-18T10:12:01.057Z,62.62
2023-01-18T10:14:51.983Z,62.85
2023-01-18T10:17:26.039Z,62.93
2023-01-18T10:19:54.102Z,63.02
2023-01-18T10:22:31.961Z,62.88
2023-01-18T10:25:14.361Z,62.86
2023-01-18T10:27:53.203Z,62.84
2023-01-18T10:30:42.339Z,62.68
2023-01-18T10:33:24.211Z,62.75
2023-01-18T10:36:17.008Z,62.70
2023-01-18T10:38:46.772Z,62.67
2023-01-18T10:41:20.969Z,62.67
2023-01-18T10:43:48.900Z,63.03
2023-01-18T10:46:19.956Z,62.82
2023-01-18T10:48:51.466Z,63.26
2023-01-18T10:51:32.647Z,62.95
2023-01-18T10:54:22.447Z,63.06
2023-01-18T10:57:02.411Z,63.05
2023-01-18T10:59:37.662Z,63.05
2023-01-18T11:02:27.617Z,62.98
2023-01-18T11:05:04.844Z,63.02
2023-01-18T11:07:32.681Z,63.13
2023-01-18T11:10:06.621Z,62.90
2023-01-18T11:12:42.652Z,63.14
2023-01-18T11:15:13.736Z,63.00
2023-01-18T11:17:56.378Z,62.80
2023-01-18T11:20:46.092Z,62.70
2023-01-18T11:23:16.953Z,62.57
2023-01-18T11:26:01.392Z,62.41
2023-01-18T11:28:54.524Z,62.27
2023-01-18T11:31:25.775Z,62.16
2023-01-18T11:33:58.057Z,62.05
2023-01-18T11:36:41.854Z,61.73
2023-01-18T11:39:26.749Z,61.73
2023-01-18T11:42:19.191Z,61.55
2023-01-18T11:45:25.033Z,61.45
2023-01-18T11:48:41.348Z,61.20
2023-01-18T11:51:25.184Z,61.38
2023-01-18T11:53:58.760Z,61.21
2023-01-18T11:56:48.051Z,61.11
2023-01-18T11:59:41.839Z,61.11
2023-01-18T12:02:31.281Z,60.88
2023-01-18T12:05:14.777Z,60.80
2023-01-18T12:08:02.625Z,60.76
2023-01-18T12:10:53.602Z,60.50
2023-01-18T12:13:35.533Z,60.10
2023-01-18T12:16:14.937Z,59.85
2023-01-18T12:18:52.189Z,59.61
2023-01-18T12:21:45.214Z,59.86
2023-01-18T12:24:22.354Z,59.68
2023-01-18T12:26:56.379Z,59.62
2023-01-18T12:29:44.200Z,59.58
2023-01-18T12:32:50.537Z,58.50
2023-01-18T12:35:32.848Z,57.30
2023-01-18T12:38:08.797Z,58.63
2023-01-18T12:40:42.835Z,59.79
2023-01-18T12:43:11.405Z,61.44
2023-01-18T12:45:42.648Z,63.51
2023-01-18T12:48:29.452Z,64.90
2023-01-18T12:51:02.668Z,64.67
2023-01-18T12:53:37.941Z,64.18
2023-01-18T12:56:14.419Z,63.57
2023-01-18T12:58:44.195Z,62.99
2023-01-18T13:01:19.005Z,62.70
2023-01-18T13:03:51.667Z,62.26
2023-01-18T13:06:21.183Z,61.91
2023-01-18T13:09:04.426Z,61.67
2023-01-18T13:11:37.803Z,61.34
2023-01-18T13:14:19.138Z,60.93
2023-01-18T13:17:17.051Z,60.87
2023-01-18T13:19:54.854Z,60.82
2023-01-18T13:22:31.831Z,60.60
2023-01-18T13:25:18.184Z,60.32
2023-01-18T13:28:16.338Z,60.20
2023-01-18T13:31:01.869Z,60.23
2023-01-18T13:33:45.752Z,60.20
2023-01-18T13:36:17.455Z,60.11
2023-01-18T13:38:58.478Z,60.05
2023-01-18T13:41:32.395Z,59.82
2023-01-18T13:44:27.306Z,59.81
2023-01-18T13:46:59.734Z,59.74
2023-01-18T13:49:37.214Z,59.12
2023-01-18T13:52:32.429Z,58.50
2023-01-18T13:55:04.098Z,59.22
2023-01-18T13:57:34.655Z,60.08
2023-01-18T14:00:04.978Z,61.61
2023-01-18T14:02:42.631Z,63.22
2023-01-18T14:05:25.523Z,64.57
2023-01-18T14:08:01.547Z,64.38
2023-01-18T14:10:34.464Z,63.77
2023-01-18T14:13:06.158Z,63.27
2023-01-18T14:15:40.153Z,62.66
2023-01-18T14:18:22.802Z,62.37
2023-01-18T14:21:32.204Z,62.11
2023-01-18T14:24:24.578Z,61.86
2023-01-18T14:26:55.238Z,61.57
2023-01-18T14:29:58.505Z,61.31
2023-01-18T14:32:33.583Z,61.12
2023-01-18T14:35:04.540Z,60.95
2023-01-18T14:37:34.753Z,60.78
2023-01-18T14:40:26.768Z,60.68
2023-01-18T14:43:02.373Z,60.66
2023-01-18T14:45:37.299Z,60.60
2023-01-18T14:48:20.378Z,60.55
2023-01-18T14:50:50.986Z,60.51
2023-01-18T14:53:29.049Z,60.50
2023-01-18T14:56:14.833Z,60.39
2023-01-18T14:58:51.524Z,60.45
2023-01-18T15:01:33.394Z,60.48
2023-01-18T15:04:05.188Z,60.49
2023-01-18T15:06:40.162Z,60.39
2023-01-18T15:09:10.073Z,60.43
2023-01-18T15:11:39.646Z,60.41
2023-01-18T15:14:18.145Z,60.49
2023-01-18T15:16:48.775Z,60.46
2023-01-18T15:19:22.647Z,60.52
2023-01-18T15:21:50.846Z,60.49
2023-01-18T15:24:24.998Z,60.46
2023-01-18T15:26:57.726Z,60.60
2023-01-18T15:29:30.891Z,60.76
2023-01-18T15:32:04.886Z,60.65
2023-01-18T15:34:38.367Z,60.73
2023-01-18T15:37:10.219Z,60.92
2023-01-18T15:39:48.822Z,60.93
2023-01-18T15:42:18.118Z,61.11
2023-01-18T15:44:52.825Z,61.28
2023-01-18T15:47:27.358Z,61.42
2023-01-18T15:49:58.031Z,61.49
2023-01-18T15:52:48.194Z,61.50
2023-01-18T15:55:24.003Z,61.60
2023-01-18T15:58:11.154Z,61.62
2023-01-18T16:00:44.819Z,61.63
2023-01-18T16:03:25.772Z,61.65
2023-01-18T16:06:00.708Z,61.79
2023-01-18T16:08:31.268Z,61.92
2023-01-18T16:10:59.263Z,61.83
2023-01-18T16:13:36.841Z,61.62
2023-01-18T16:16:14.060Z,61.51
2023-01-18T16:18:51.774Z,61.51
2023-01-18T16:21:40.456Z,61.67
2023-01-18T16:24:17.002Z,61.67
2023-01-18T16:26:45.586Z,61.76
2023-01-18T16:29:13.727Z,61.93
2023-01-18T16:31:43.721Z,61.91
2023-01-18T16:34:21.545Z,61.89
2023-01-18T16:36:50.503Z,61.90
2023-01-18T16:39:19.518Z,61.98
2023-01-18T16:41:53.252Z,62.19
2023-01-18T16:44:21.962Z,62.05
2023-01-18T16:46:50.188Z,61.99
2023-01-18T16:49:18.068Z,61.99
2023-01-18T16:51:49.493Z,61.90
2023-01-18T16:54:18.815Z,62.10
2023-01-18T16:56:47.619Z,62.11
2023-01-18T16:59:21.879Z,62.13
2023-01-18T17:01:50.865Z,62.40
2023-01-18T17:04:18.935Z,62.35
2023-01-18T17:06:47.382Z,62.32
2023-01-18T17:09:22.453Z,62.42
2023-01-18T17:11:51.443Z,62.37
2023-01-18T17:14:21.088Z,62.46
2023-01-18T17:16:49.761Z,62.58
2023-01-18T17:19:22.924Z,62.47
2023-01-18T17:21:51.604Z,62.31
2023-01-18T17:24:25.193Z,62.43
2023-01-18T17:26:52.972Z,62.50
2023-01-18T17:29:22.020Z,62.43
2023-01-18T17:31:52.960Z,62.32
2023-01-18T17:34:28.230Z,62.43
2023-01-18T17:36:58.624Z,62.40
2023-01-18T17:39:42.730Z,62.52
2023-01-18T17:42:22.341Z,62.56
2023-01-18T17:45:03.179Z,62.51
2023-01-18T17:47:33.316Z,62.38
2023-01-18T17:50:08.884Z,62.19
2023-01-18T17:52:38.815Z,62.19
2023-01-18T17:55:10.477Z,62.07
2023-01-18T17:57:38.786Z,62.02
2023-01-18T18:00:08.250Z,62.04
2023-01-18T18:02:36.188Z,62.01
2023-01-18T18:05:05.084Z,61.93
2023-01-18T18:07:33.799Z,61.91
2023-01-18T18:10:02.565Z,61.87
2023-01-18T18:12:33.707Z,61.89
2023-01-18T18:15:02.082Z,61.81
2023-01-18T18:17:31.631Z,61.83
2023-01-18T18:20:00.541Z,61.80
2023-01-18T18:22:28.658Z,61.76
2023-01-18T18:24:56.671Z,61.68
2023-01-18T18:27:26.671Z,61.72
2023-01-18T18:29:59.075Z,61.76
2023-01-18T18:32:26.875Z,61.79
2023-01-18T18:34:54.698Z,61.74
2023-01-18T18:37:23.584Z,61.74
2023-01-18T18:39:51.609Z,61.80
2023-01-18T18:42:19.495Z,61.74
2023-01-18T18:44:47.358Z,61.86
2023-01-18T18:47:15.321Z,61.89
2023-01-18T18:49:43.803Z,61.88
2023-01-18T18:52:11.778Z,61.84
2023-01-18T18:54:39.615Z,61.79
2023-01-18T18:57:07.787Z,61.85
2023-01-18T18:59:35.642Z,61.86
2023-01-18T19:02:03.734Z,61.73
2023-01-18T19:04:31.562Z,61.68
2023-01-18T19:07:00.435Z,61.66
2023-01-18T19:09:28.633Z,61.69
2023-01-18T19:11:56.450Z,61.77
2023-01-18T19:14:26.590Z,61.76
2023-01-18T19:16:54.817Z,61.74
2023-01-18T19:19:22.627Z,61.64
2023-01-18T19:21:50.411Z,61.72
2023-01-18T19:24:18.778Z,61.63
2023-01-18T19:26:46.976Z,61.67
2023-01-18T19:29:14.941Z,61.51
2023-01-18T19:31:42.934Z,61.77
2023-01-18T19:34:10.809Z,62.02
2023-01-18T19:36:38.628Z,62.14
2023-01-18T19:39:09.344Z,62.16
2023-01-18T19:41:42.947Z,62.45
2023-01-18T19:44:13.744Z,62.67
2023-01-18T19:46:41.589Z,62.72
2023-01-18T19:49:09.621Z,62.68
2023-01-18T19:51:41.294Z,62.65
2023-01-18T19:54:11.189Z,62.51
2023-01-18T19:56:39.013Z,62.46
2023-01-18T19:59:08.050Z,62.41
2023-01-18T20:01:37.396Z,62.31
2023-01-18T20:04:06.935Z,62.33
2023-01-18T20:06:35.372Z,62.31
2023-01-18T20:09:07.459Z,62.42
2023-01-18T20:11:38.032Z,62.24
2023-01-18T20:14:05.943Z,62.12
2023-01-18T20:16:33.825Z,62.07
2023-01-18T20:19:02.052Z,61.87
2023-01-18T20:21:29.887Z,61.76
2023-01-18T20:23:57.961Z,61.84
2023-01-18T20:26:35.814Z,61.83
2023-01-18T20:29:09.174Z,61.79
2023-01-18T20:31:39.040Z,61.76
2023-01-18T20:34:07.639Z,61.76
2023-01-18T20:36:36.709Z,61.75
2023-01-18T20:39:05.804Z,61.68
2023-01-18T20:41:33.780Z,61.67
2023-01-18T20:44:01.695Z,61.65
2023-01-18T20:46:29.867Z,61.83
2023-01-18T20:48:57.713Z,61.78
2023-01-18T20:51:25.704Z,61.92
2023-01-18T20:53:53.654Z,61.92
2023-01-18T20:56:29.146Z,61.94
2023-01-18T20:58:58.339Z,61.91
2023-01-18T21:01:32.038Z,61.84
2023-01-18T21:04:02.853Z,61.81
2023-01-18T21:06:31.951Z,61.86
2023-01-18T21:09:01.466Z,61.82
2023-01-18T21:11:29.657Z,61.85
2023-01-18T21:13:59.348Z,61.77
2023-01-18T21:16:28.027Z,61.70
2023-01-18T21:18:56.697Z,61.60
2023-01-18T21:21:26.837Z,61.54
2023-01-18T21:23:54.745Z,61.41
2023-01-18T21:26:22.862Z,61.32
2023-01-18T21:28:50.698Z,61.34
2023-01-18T21:31:18.791Z,61.37
2023-01-18T21:33:47.091Z,61.39
2023-01-18T21:36:17.753Z,61.45
2023-01-18T21:38:45.949Z,61.42
2023-01-18T21:41:32.700Z,61.36
2023-01-18T21:44:19.404Z,61.42
2023-01-18T21:46:49.160Z,61.49
2023-01-18T21:49:57.629Z,61.48
2023-01-18T21:52:43.746Z,61.45
2023-01-18T21:55:11.594Z,61.41
2023-01-18T21:57:39.553Z,61.31
2023-01-18T22:00:08.989Z,61.36
2023-01-18T22:02:37.805Z,61.23
2023-01-18T22:05:08.681Z,61.27
2023-01-18T22:07:36.857Z,61.31
2023-01-18T22:10:07.468Z,61.32
2023-01-18T22:12:36.558Z,61.31
2023-01-18T22:15:05.737Z,61.36
2023-01-18T22:17:33.658Z,61.38
2023-01-18T22:20:02.209Z,61.41
2023-01-18T22:22:30.487Z,61.27
2023-01-18T22:25:00.393Z,61.36
2023-01-18T22:27:28.818Z,61.40
2023-01-18T22:29:56.625Z,61.42
2023-01-18T22:32:24.551Z,61.33
2023-01-18T22:34:52.424Z,61.32
2023-01-18T22:37:20.283Z,61.24
2023-01-18T22:39:48.339Z,61.22
2023-01-18T22:42:16.199Z,61.18
2023-01-18T22:44:44.159Z,61.05
2023-01-18T22:47:11.977Z,60.93
2023-01-18T22:49:39.923Z,60.92
2023-01-18T22:52:07.871Z,60.96
2023-01-18T22:54:35.616Z,60.89
2023-01-18T22:57:03.762Z,60.87
2023-01-18T22:59:31.699Z,60.85
2023-01-18T23:01:59.675Z,60.81
2023-01-18T23:04:29.539Z,60.78
2023-01-18T23:07:01.034Z,60.82
2023-01-18T23:09:29.637Z,60.88
2023-01-18T23:11:57.493Z,60.93
2023-01-18T23:14:44.142Z,61.01
2023-01-18T23:17:31.077Z,60.98
2023-01-18T23:19:59.045Z,60.97
2023-01-18T23:22:27.100Z,61.00
2023-01-18T23:24:55.110Z,61.02
2023-01-18T23:27:23.496Z,60.98
2023-01-18T23:29:56.583Z,60.96
2023-01-18T23:32:26.678Z,60.97
2023-01-18T23:34:55.557Z,60.89
2023-01-18T23:37:23.756Z,60.91
2023-01-18T23:40:10.905Z,60.89
2023-01-18T23:42:57.873Z,60.94
2023-01-18T23:45:44.624Z,60.88
2023-01-18T23:48:34.054Z,60.86
2023-01-18T23:51:22.020Z,60.91
2023-01-18T23:54:08.755Z,60.99
2023-01-18T23:56:36.909Z,61.14
2023-01-18T23:59:05.243Z,61.12
